Terminal Aerodrome Forecast
Issued by NWS

Home | Current Version | Previous Version | Text Only | Print | Product List | Glossary On
Versions: 1 2 3 4 5 6 7 8 9 10 11 12 13 14
000
FTUS43 KDLH 211730
TAFHIB
TAF
KHIB 211730Z 2118/2218 13010KT P6SM BKN120
     FM212100 14007KT P6SM BKN080
     FM220000 13006KT P6SM VCSH BKN060
     FM220800 11004KT 4SM BR VCTS BKN040CB
     FM221200 00000KT 2SM BR BKN010
     FM221500 16004KT P6SM BKN015=

USA.gov is the U.S. government's official web portal to all federal, state and local government web resources and services.